This is the latest recevied weather packets stored in our database for station/object OM3WYM-13. If no packets are shown the sender has not sent any weather packets the latest 10 day(s).
| Time | Temp. | Humidity | Pressure | Rain* | Wind** | Luminosity | Snow |
|---|---|---|---|---|---|---|---|
| 1777837808 | 10° C | 61% | 1018.9 hPa | - | - | - | - |
| 1777837209 | 10° C | 60% | 1019 hPa | - | - | - | - |
| 1777836609 | 10.56° C | 59% | 1018.9 hPa | - | - | - | - |
| 1777836009 | 11.11° C | 58% | 1018.9 hPa | - | - | - | - |
| 1777835409 | 11.67° C | 56% | 1018.8 hPa | - | - | - | - |
| 1777834808 | 11.67° C | 55% | 1018.6 hPa | - | - | - | - |
| 1777834208 | 12.22° C | 53% | 1018.4 hPa | - | - | - | - |
| 1777833609 | 12.78° C | 52% | 1018.4 hPa | - | - | - | - |
| 1777833008 | 13.33° C | 49% | 1018.2 hPa | - | - | - | - |
| 1777832409 | 13.89° C | 47% | 1018.1 hPa | - | - | - | - |
| 1777831808 | 15° C | 45% | 1017.9 hPa | - | - | - | - |
| 1777831208 | 15.56° C | 42% | 1017.7 hPa | - | - | - | - |
| 1777830609 | 16.67° C | 40% | 1017.4 hPa | - | - | - | - |
| 1777830009 | 17.78° C | 38% | 1017.3 hPa | - | - | - | - |
| 1777829408 | 18.33° C | 36% | 1017.2 hPa | - | - | - | - |
| 1777828808 | 19.44° C | 33% | 1017 hPa | - | - | - | - |
| 1777828208 | 21.11° C | 30% | 1016.8 hPa | - | - | - | - |
| 1777827608 | 23.33° C | 28% | 1016.5 hPa | - | - | - | - |
| 1777827008 | 24.44° C | 24% | 1016.5 hPa | - | - | - | - |
| 1777826408 | 25.56° C | 22% | 1016.3 hPa | - | - | - | - |
| 1777825809 | 25.56° C | 23% | 1016.4 hPa | - | - | - | - |
| 1777825209 | 25.56° C | 22% | 1016.5 hPa | - | - | - | - |
| 1777824609 | 25.56° C | 23% | 1016.5 hPa | - | - | - | - |
| 1777824008 | 25° C | 23% | 1016.7 hPa | - | - | - | - |
| 1777823408 | 25° C | 23% | 1016.8 hPa | - | - | - | - |
* Rain since midnight (hover to see other rain measurements)
** Current wind speed in m/s (hover to see current wind gust speed)